createdAt,value
2018-04-26T00:00:39.781Z,13.68
2018-04-26T00:02:50.997Z,13.61
2018-04-26T00:05:02.158Z,13.58
2018-04-26T00:07:13.382Z,13.52
2018-04-26T00:09:24.638Z,13.51
2018-04-26T00:11:35.745Z,13.50
2018-04-26T00:13:46.957Z,13.45
2018-04-26T00:15:58.066Z,13.47
2018-04-26T00:18:09.182Z,13.45
2018-04-26T00:20:20.278Z,13.36
2018-04-26T00:22:31.322Z,13.38
2018-04-26T00:24:42.419Z,13.32
2018-04-26T00:26:53.532Z,13.32
2018-04-26T00:29:04.614Z,13.32
2018-04-26T00:31:15.866Z,13.31
2018-04-26T00:33:27.032Z,13.28
2018-04-26T00:35:38.114Z,13.15
2018-04-26T00:37:49.206Z,13.21
2018-04-26T00:40:00.329Z,13.21
2018-04-26T00:42:11.373Z,13.25
2018-04-26T00:44:22.478Z,13.21
2018-04-26T00:46:33.562Z,13.20
2018-04-26T00:48:44.697Z,13.08
2018-04-26T00:50:55.765Z,13.16
2018-04-26T00:53:06.874Z,13.15
2018-04-26T00:55:17.937Z,13.19
2018-04-26T00:57:29.018Z,13.29
2018-04-26T00:59:40.099Z,13.30
2018-04-26T01:01:51.198Z,13.23
2018-04-26T01:04:02.329Z,13.24
2018-04-26T01:06:13.480Z,13.16
2018-04-26T01:08:24.744Z,13.18
2018-04-26T01:10:35.871Z,13.14
2018-04-26T01:12:47.096Z,13.20
2018-04-26T01:14:58.171Z,13.26
2018-04-26T01:17:09.261Z,13.33
2018-04-26T01:19:22.042Z,13.35
2018-04-26T01:21:33.223Z,13.32
2018-04-26T01:23:44.438Z,13.36
2018-04-26T01:25:55.634Z,13.28
2018-04-26T01:28:06.790Z,13.21
2018-04-26T01:30:17.867Z,13.23
2018-04-26T01:32:28.929Z,13.20
2018-04-26T01:34:40.047Z,13.13
2018-04-26T01:39:35.961Z,13.08
2018-04-26T01:41:47.170Z,13.13
2018-04-26T01:43:58.301Z,13.14
2018-04-26T01:46:09.413Z,13.16
2018-04-26T01:48:20.461Z,13.16
2018-04-26T01:50:31.561Z,13.19
2018-04-26T01:52:42.622Z,13.17
2018-04-26T01:54:53.727Z,13.19
2018-04-26T01:57:04.865Z,13.19
2018-04-26T01:59:15.999Z,13.16
2018-04-26T02:01:27.150Z,13.21
2018-04-26T02:03:38.201Z,13.17
2018-04-26T02:05:49.339Z,13.15
2018-04-26T02:08:00.415Z,13.11
2018-04-26T02:10:11.471Z,13.12
2018-04-26T02:12:22.618Z,13.13
2018-04-26T02:14:33.685Z,13.13
2018-04-26T02:16:45.555Z,13.16
2018-04-26T02:18:56.750Z,13.18
2018-04-26T02:21:07.833Z,13.16
2018-04-26T02:23:19.145Z,13.13
2018-04-26T02:25:30.194Z,13.14
2018-04-26T02:27:41.402Z,13.14
2018-04-26T02:29:52.495Z,13.16
2018-04-26T02:32:03.564Z,13.16
2018-04-26T02:34:14.622Z,13.08
2018-04-26T02:36:25.663Z,13.08
2018-04-26T02:38:36.775Z,13.08
2018-04-26T02:40:47.870Z,13.04
2018-04-26T02:42:58.983Z,13.03
2018-04-26T02:45:10.044Z,13.01
2018-04-26T02:47:21.274Z,13.01
2018-04-26T02:49:32.360Z,13.05
2018-04-26T02:51:43.430Z,13.05
2018-04-26T02:53:54.514Z,13.05
2018-04-26T02:56:05.598Z,13.04
2018-04-26T02:58:16.790Z,12.98
2018-04-26T03:00:27.947Z,12.95
2018-04-26T03:02:39.106Z,12.94
2018-04-26T03:04:50.181Z,12.93
2018-04-26T03:07:01.414Z,12.89
2018-04-26T03:09:12.542Z,12.87
2018-04-26T03:11:23.653Z,12.85
2018-04-26T03:13:34.703Z,12.84
2018-04-26T03:15:45.795Z,12.87
2018-04-26T03:17:56.939Z,12.83
2018-04-26T03:20:08.021Z,12.77
2018-04-26T03:22:19.229Z,12.74
2018-04-26T03:24:30.286Z,12.77
2018-04-26T03:26:41.443Z,12.79
2018-04-26T03:28:52.533Z,12.78
2018-04-26T03:31:03.633Z,12.80
2018-04-26T03:33:14.720Z,12.82
2018-04-26T03:35:25.774Z,12.83
2018-04-26T03:37:36.904Z,12.82
2018-04-26T03:39:48.087Z,12.86
2018-04-26T03:41:59.268Z,12.81
2018-04-26T03:44:10.370Z,12.74
2018-04-26T03:46:21.558Z,12.69
2018-04-26T03:48:32.681Z,12.64
2018-04-26T03:50:43.739Z,12.62
2018-04-26T03:52:54.809Z,12.62
2018-04-26T03:55:05.950Z,12.58
2018-04-26T03:57:17.297Z,12.62
2018-04-26T03:59:28.345Z,12.66
2018-04-26T04:01:51.718Z,12.65
2018-04-26T04:04:15.125Z,12.64
2018-04-26T04:06:26.202Z,12.63
2018-04-26T04:08:37.298Z,12.63
2018-04-26T04:10:48.418Z,12.61
2018-04-26T04:12:59.649Z,12.66
2018-04-26T04:15:10.734Z,12.64
2018-04-26T04:17:21.903Z,12.63
2018-04-26T04:19:32.978Z,12.57
2018-04-26T04:21:44.121Z,12.55
2018-04-26T04:23:55.233Z,12.50
2018-04-26T04:26:06.318Z,12.52
2018-04-26T04:28:17.374Z,12.55
2018-04-26T04:30:28.431Z,12.60
2018-04-26T04:32:39.609Z,12.89
2018-04-26T04:34:50.762Z,12.96
2018-04-26T04:37:01.952Z,12.90
2018-04-26T04:39:13.069Z,12.67
2018-04-26T04:41:24.123Z,12.62
2018-04-26T04:43:35.212Z,12.59
2018-04-26T04:45:46.284Z,12.59
2018-04-26T04:47:57.546Z,12.54
2018-04-26T04:50:08.641Z,12.51
2018-04-26T04:52:19.714Z,12.50
2018-04-26T04:54:30.838Z,12.50
2018-04-26T04:56:42.018Z,12.56
2018-04-26T04:58:53.126Z,12.55
2018-04-26T05:01:04.184Z,12.55
2018-04-26T05:03:15.290Z,12.57
2018-04-26T05:05:26.392Z,12.56
2018-04-26T05:07:37.577Z,12.53
2018-04-26T05:09:48.702Z,12.57
2018-04-26T05:11:59.898Z,12.54
2018-04-26T05:14:11.016Z,12.59
2018-04-26T05:16:22.156Z,12.57
2018-04-26T05:18:33.209Z,12.63
2018-04-26T05:20:44.309Z,12.63
2018-04-26T05:22:55.374Z,12.69
2018-04-26T05:25:06.482Z,12.71
2018-04-26T05:27:17.576Z,12.81
2018-04-26T05:29:28.645Z,12.89
2018-04-26T05:31:39.842Z,12.88
2018-04-26T05:33:50.896Z,12.87
2018-04-26T05:36:02.074Z,12.86
2018-04-26T05:38:13.202Z,12.98
2018-04-26T05:40:24.242Z,13.37
2018-04-26T05:42:35.318Z,13.83
2018-04-26T05:44:46.370Z,14.21
2018-04-26T05:46:57.531Z,14.73
2018-04-26T05:49:08.649Z,15.19
2018-04-26T05:51:19.770Z,15.72
2018-04-26T05:53:30.867Z,16.06
2018-04-26T05:55:42.042Z,16.44
2018-04-26T05:57:53.156Z,16.71
2018-04-26T06:00:04.232Z,16.92
2018-04-26T06:02:15.298Z,17.23
2018-04-26T06:04:26.387Z,17.44
2018-04-26T06:06:37.489Z,17.61
2018-04-26T06:08:48.546Z,17.77
2018-04-26T06:10:59.761Z,17.91
2018-04-26T06:13:10.842Z,18.03
2018-04-26T06:15:22.149Z,17.98
2018-04-26T06:17:33.213Z,18.05
2018-04-26T06:19:44.306Z,18.17
2018-04-26T06:21:55.378Z,18.16
2018-04-26T06:24:06.470Z,18.18
2018-04-26T06:26:17.661Z,18.31
2018-04-26T06:28:28.724Z,18.49
2018-04-26T06:30:39.806Z,18.60
2018-04-26T06:32:50.882Z,18.61
2018-04-26T06:35:01.961Z,18.86
2018-04-26T06:37:14.090Z,19.20
2018-04-26T06:39:25.168Z,19.12
2018-04-26T06:41:36.440Z,18.52
2018-04-26T06:43:47.567Z,17.65
2018-04-26T06:45:58.642Z,17.02
2018-04-26T06:48:09.721Z,16.64
2018-04-26T06:50:20.794Z,16.18
2018-04-26T06:52:31.934Z,15.68
2018-04-26T06:54:43.042Z,15.52
2018-04-26T06:56:54.122Z,15.85
2018-04-26T06:59:05.329Z,15.60
2018-04-26T07:01:16.386Z,15.40
2018-04-26T07:03:27.491Z,15.10
2018-04-26T07:05:38.538Z,14.79
2018-04-26T07:07:49.633Z,14.58
2018-04-26T07:10:00.706Z,14.54
2018-04-26T07:12:11.927Z,14.34
2018-04-26T07:14:22.935Z,14.32
2018-04-26T07:16:34.075Z,14.20
2018-04-26T07:18:45.174Z,14.17
2018-04-26T07:20:56.305Z,14.05
2018-04-26T07:23:07.356Z,13.92
2018-04-26T07:25:18.428Z,13.81
2018-04-26T07:27:29.513Z,13.75
2018-04-26T07:29:40.666Z,13.73
2018-04-26T07:31:51.810Z,13.64
2018-04-26T07:34:02.931Z,13.51
2018-04-26T07:36:14.155Z,13.48
2018-04-26T07:38:25.218Z,13.50
2018-04-26T07:40:36.314Z,13.44
2018-04-26T07:42:47.376Z,13.36
2018-04-26T07:44:58.450Z,13.32
2018-04-26T07:47:09.551Z,13.31
2018-04-26T07:49:20.769Z,13.21
2018-04-26T07:51:31.930Z,13.12
2018-04-26T07:53:43.022Z,13.06
2018-04-26T07:55:54.257Z,13.03
2018-04-26T07:58:05.342Z,13.00
2018-04-26T08:00:16.384Z,13.06
2018-04-26T08:02:27.483Z,13.08
2018-04-26T08:04:38.546Z,13.17
2018-04-26T08:06:49.705Z,13.31
2018-04-26T08:09:00.842Z,13.39
2018-04-26T08:11:11.995Z,13.46
2018-04-26T08:13:23.078Z,13.38
2018-04-26T08:15:34.337Z,13.33
2018-04-26T08:17:45.397Z,13.36
2018-04-26T08:19:56.478Z,13.34
2018-04-26T08:22:07.558Z,13.21
2018-04-26T08:24:18.626Z,13.16
2018-04-26T08:26:29.702Z,13.13
2018-04-26T08:28:40.807Z,13.27
2018-04-26T08:30:51.906Z,13.31
2018-04-26T08:33:03.003Z,13.37
2018-04-26T08:35:14.073Z,13.32
2018-04-26T08:37:25.136Z,13.35
2018-04-26T08:39:36.264Z,13.34
2018-04-26T08:41:47.346Z,13.42
2018-04-26T08:43:58.583Z,13.41
2018-04-26T08:46:09.645Z,13.31
2018-04-26T08:48:20.698Z,13.24
2018-04-26T08:50:31.786Z,13.11
2018-04-26T08:52:42.889Z,13.15
2018-04-26T08:54:53.960Z,12.99
2018-04-26T08:57:05.039Z,12.95
2018-04-26T08:59:16.085Z,13.17
2018-04-26T09:01:27.185Z,13.37
2018-04-26T09:03:38.336Z,13.88
2018-04-26T09:05:49.484Z,14.34
2018-04-26T09:08:00.630Z,14.58
2018-04-26T09:10:11.670Z,14.60
2018-04-26T09:12:22.795Z,14.88
2018-04-26T09:14:33.886Z,15.12
2018-04-26T09:16:44.988Z,15.55
2018-04-26T09:18:56.169Z,16.08
2018-04-26T09:21:07.239Z,16.30
2018-04-26T09:23:18.415Z,16.49
2018-04-26T09:25:29.462Z,16.27
2018-04-26T09:27:40.741Z,16.50
2018-04-26T09:29:51.800Z,16.99
2018-04-26T09:32:02.866Z,17.30
2018-04-26T09:34:13.944Z,17.70
2018-04-26T09:36:25.018Z,17.68
2018-04-26T09:38:36.171Z,17.69
2018-04-26T09:40:47.253Z,17.87
2018-04-26T09:42:58.482Z,18.15
2018-04-26T09:45:09.617Z,18.30
2018-04-26T09:47:20.813Z,18.21
2018-04-26T09:49:31.882Z,17.95
2018-04-26T09:51:42.950Z,17.74
2018-04-26T09:53:54.075Z,17.71
2018-04-26T09:56:05.149Z,18.21
2018-04-26T09:58:16.316Z,18.16
2018-04-26T10:00:27.375Z,18.01
2018-04-26T10:02:44.570Z,17.98
2018-04-26T10:04:56.553Z,17.69
2018-04-26T10:07:07.682Z,18.07
2018-04-26T10:09:18.749Z,18.62
2018-04-26T10:11:29.857Z,19.04
2018-04-26T10:13:40.962Z,19.07
2018-04-26T10:15:52.062Z,19.31
2018-04-26T10:18:03.138Z,19.34
2018-04-26T10:20:14.230Z,19.17
2018-04-26T10:22:25.354Z,18.82
2018-04-26T10:24:36.514Z,18.64
2018-04-26T10:26:47.587Z,18.93
2018-04-26T10:28:58.713Z,19.13
2018-04-26T10:31:09.786Z,18.86
2018-04-26T10:33:20.897Z,18.49
2018-04-26T10:35:31.946Z,17.97
2018-04-26T10:37:43.094Z,17.67
2018-04-26T10:39:54.148Z,17.38
2018-04-26T10:42:05.219Z,17.20
2018-04-26T10:44:16.471Z,17.20
2018-04-26T10:46:27.484Z,17.44
2018-04-26T10:48:38.681Z,17.76
2018-04-26T10:50:49.775Z,17.73
2018-04-26T10:53:00.995Z,17.78
2018-04-26T10:55:12.038Z,17.98
2018-04-26T10:57:23.089Z,18.33
2018-04-26T10:59:34.190Z,18.55
2018-04-26T11:01:45.272Z,18.57
2018-04-26T11:03:56.417Z,18.74
2018-04-26T11:06:07.570Z,18.82
2018-04-26T11:08:18.730Z,19.00
2018-04-26T11:10:29.858Z,19.22
2018-04-26T11:12:41.146Z,19.08
2018-04-26T11:14:52.274Z,18.93
2018-04-26T11:17:03.409Z,19.03
2018-04-26T11:19:14.480Z,19.09
2018-04-26T11:21:25.641Z,19.08
2018-04-26T11:23:36.814Z,19.12
2018-04-26T11:25:47.894Z,18.90
2018-04-26T11:27:58.974Z,19.01
2018-04-26T11:30:10.050Z,19.14
2018-04-26T11:32:21.200Z,19.14
2018-04-26T11:34:32.270Z,18.83
2018-04-26T11:36:44.392Z,18.74
2018-04-26T11:38:55.527Z,18.70
2018-04-26T11:41:06.635Z,18.97
2018-04-26T11:43:17.797Z,19.11
2018-04-26T11:45:28.895Z,19.15
2018-04-26T11:47:39.961Z,19.23
2018-04-26T11:49:51.094Z,19.29
2018-04-26T11:52:02.197Z,19.41
2018-04-26T11:54:13.319Z,19.29
2018-04-26T11:56:24.524Z,19.41
2018-04-26T11:58:35.465Z,19.48
2018-04-26T12:00:46.605Z,19.55
2018-04-26T12:02:57.697Z,19.56
2018-04-26T12:05:08.830Z,19.55
2018-04-26T12:07:19.962Z,19.64
2018-04-26T12:09:31.091Z,19.79
2018-04-26T12:11:42.198Z,19.80
2018-04-26T12:13:53.293Z,19.60
2018-04-26T12:16:04.369Z,19.34
2018-04-26T12:18:15.435Z,18.96
2018-04-26T12:20:26.614Z,18.69
2018-04-26T12:22:37.724Z,18.48
2018-04-26T12:24:48.882Z,18.12
2018-04-26T12:26:59.947Z,17.88
2018-04-26T12:29:11.097Z,18.11
2018-04-26T12:31:22.200Z,18.35
2018-04-26T12:33:33.336Z,18.43
2018-04-26T12:35:44.421Z,18.23
2018-04-26T12:37:55.495Z,18.02
2018-04-26T12:40:06.560Z,18.17
2018-04-26T12:42:17.762Z,18.25
2018-04-26T12:44:28.896Z,18.34
2018-04-26T12:46:39.986Z,18.54
2018-04-26T12:48:51.121Z,18.57
2018-04-26T12:51:02.193Z,18.32
2018-04-26T12:53:13.405Z,18.16
2018-04-26T12:55:25.241Z,18.06
2018-04-26T12:57:36.318Z,18.01
2018-04-26T12:59:47.494Z,17.91
2018-04-26T13:01:58.600Z,17.74
2018-04-26T13:04:09.734Z,17.64
2018-04-26T13:06:20.837Z,17.62
2018-04-26T13:08:31.946Z,17.52
2018-04-26T13:10:43.126Z,17.46
2018-04-26T13:12:54.192Z,17.53
2018-04-26T13:15:05.429Z,17.65
2018-04-26T13:17:16.508Z,17.79
2018-04-26T13:19:27.792Z,17.86
2018-04-26T13:21:39.071Z,17.97
2018-04-26T13:23:50.162Z,17.97
2018-04-26T13:26:01.378Z,17.86
2018-04-26T13:28:12.446Z,17.87
2018-04-26T13:30:23.538Z,17.84
2018-04-26T13:32:34.594Z,17.68
2018-04-26T13:34:45.770Z,17.73
2018-04-26T13:36:56.859Z,17.77
2018-04-26T13:39:08.037Z,17.76
2018-04-26T13:41:19.274Z,17.72
2018-04-26T13:43:30.386Z,17.68
2018-04-26T13:45:41.586Z,17.54
2018-04-26T13:47:52.754Z,17.47
2018-04-26T13:50:03.818Z,17.49
2018-04-26T13:52:14.927Z,17.52
2018-04-26T13:54:25.971Z,17.50
2018-04-26T13:56:37.078Z,17.56
2018-04-26T13:58:48.201Z,17.59
2018-04-26T14:00:59.447Z,17.57
2018-04-26T14:03:10.566Z,17.47
2018-04-26T14:05:21.721Z,17.53
2018-04-26T14:07:32.934Z,17.51
2018-04-26T14:09:44.046Z,17.63
2018-04-26T14:11:55.147Z,17.67
2018-04-26T14:14:06.295Z,17.70
2018-04-26T14:16:17.366Z,17.73
2018-04-26T14:18:28.418Z,17.78
2018-04-26T14:20:39.729Z,17.81
2018-04-26T14:22:50.822Z,17.79
2018-04-26T14:25:01.919Z,17.80
2018-04-26T14:27:13.033Z,17.75
2018-04-26T14:29:24.249Z,17.76
2018-04-26T14:31:35.285Z,17.77
2018-04-26T14:33:46.333Z,17.82
2018-04-26T14:35:57.481Z,17.90
2018-04-26T14:38:08.569Z,17.92
2018-04-26T14:40:19.702Z,17.88
2018-04-26T14:42:30.806Z,17.80
2018-04-26T14:44:41.874Z,17.73
2018-04-26T14:46:52.978Z,17.69
2018-04-26T14:49:04.034Z,17.76
2018-04-26T14:51:15.145Z,17.71
2018-04-26T14:53:26.218Z,17.69
2018-04-26T14:55:37.283Z,17.69
2018-04-26T14:57:48.453Z,17.65
2018-04-26T14:59:59.587Z,17.63
2018-04-26T15:02:10.702Z,17.74
2018-04-26T15:04:21.758Z,17.74
2018-04-26T15:06:32.930Z,17.67
2018-04-26T15:08:44.040Z,17.58
2018-04-26T15:10:55.118Z,17.53
2018-04-26T15:13:06.234Z,17.46
2018-04-26T15:15:17.438Z,17.42
2018-04-26T15:17:29.263Z,17.34
2018-04-26T15:19:40.337Z,17.29
2018-04-26T15:21:51.853Z,17.27
2018-04-26T15:24:03.033Z,17.20
2018-04-26T15:26:14.138Z,17.10
2018-04-26T15:28:25.361Z,17.03
2018-04-26T15:30:36.447Z,17.03
2018-04-26T15:32:47.744Z,17.05
2018-04-26T15:34:58.827Z,17.00
2018-04-26T15:37:09.910Z,17.00
2018-04-26T15:39:21.017Z,16.98
2018-04-26T15:41:32.111Z,16.95
2018-04-26T15:43:43.210Z,16.98
2018-04-26T15:45:54.329Z,16.98
2018-04-26T15:48:05.453Z,16.94
2018-04-26T15:50:25.560Z,16.90
2018-04-26T15:52:55.098Z,16.86
2018-04-26T15:55:18.634Z,16.81
2018-04-26T16:00:48.521Z,16.73
2018-04-26T16:03:11.882Z,16.64
2018-04-26T16:08:30.215Z,16.61
2018-04-26T16:10:59.654Z,16.63
2018-04-26T16:13:29.124Z,16.62
2018-04-26T16:15:58.601Z,16.62
2018-04-26T16:18:27.996Z,16.58
2018-04-26T16:23:57.927Z,16.55
2018-04-26T16:26:21.146Z,16.53
2018-04-26T16:28:50.532Z,16.50
2018-04-26T16:31:20.038Z,16.47
2018-04-26T16:36:30.700Z,16.54
2018-04-26T16:38:47.909Z,16.50
2018-04-26T16:40:59.028Z,16.47
2018-04-26T16:43:10.279Z,16.34
2018-04-26T16:45:21.336Z,16.33
2018-04-26T16:47:32.474Z,16.33
2018-04-26T16:49:43.733Z,16.35
2018-04-26T16:51:54.805Z,16.32
2018-04-26T16:54:06.070Z,16.29
2018-04-26T16:56:17.161Z,16.31
2018-04-26T16:58:28.259Z,16.25
2018-04-26T17:00:39.358Z,16.22
2018-04-26T17:02:50.498Z,16.15
2018-04-26T17:05:01.695Z,16.11
2018-04-26T17:07:12.837Z,16.16
2018-04-26T17:09:23.937Z,16.10
2018-04-26T17:11:35.074Z,16.03
2018-04-26T17:13:46.186Z,16.03
2018-04-26T17:15:57.294Z,16.01
2018-04-26T17:18:08.391Z,15.94
2018-04-26T17:20:19.430Z,15.90
2018-04-26T17:22:30.618Z,15.80
2018-04-26T17:24:41.754Z,15.75
2018-04-26T17:26:52.929Z,15.65
2018-04-26T17:29:04.115Z,15.62
2018-04-26T17:31:15.228Z,15.59
2018-04-26T17:33:26.434Z,15.49
2018-04-26T17:35:37.508Z,15.45
2018-04-26T17:37:48.620Z,15.40
2018-04-26T17:39:59.747Z,15.33
2018-04-26T17:42:10.866Z,15.31
2018-04-26T17:44:22.031Z,15.37
2018-04-26T17:46:33.104Z,15.35
2018-04-26T17:48:44.231Z,15.27
2018-04-26T17:50:55.338Z,15.25
2018-04-26T17:53:06.494Z,15.17
2018-04-26T17:55:17.602Z,15.13
2018-04-26T17:57:28.714Z,15.03
2018-04-26T17:59:39.802Z,15.01
2018-04-26T18:01:50.913Z,15.00
2018-04-26T18:04:02.095Z,14.92
2018-04-26T18:06:13.217Z,14.88
2018-04-26T18:08:24.464Z,14.81
2018-04-26T18:10:35.554Z,14.78
2018-04-26T18:12:46.791Z,14.79
2018-04-26T18:14:57.849Z,14.88
2018-04-26T18:17:08.951Z,15.13
2018-04-26T18:19:20.052Z,15.52
2018-04-26T18:21:31.167Z,15.74
2018-04-26T18:23:42.389Z,15.53
2018-04-26T18:25:53.582Z,15.26
2018-04-26T18:28:04.690Z,15.07
2018-04-26T18:30:16.013Z,14.94
2018-04-26T18:32:27.130Z,14.80
2018-04-26T18:34:38.316Z,14.64
2018-04-26T18:36:49.401Z,14.50
2018-04-26T18:39:00.535Z,14.32
2018-04-26T18:41:11.682Z,14.23
2018-04-26T18:43:22.804Z,14.22
2018-04-26T18:45:33.888Z,14.09
2018-04-26T18:47:44.995Z,13.96
2018-04-26T18:49:56.186Z,13.83
2018-04-26T18:52:07.293Z,13.77
2018-04-26T18:54:18.501Z,13.69
2018-04-26T18:56:29.628Z,13.67
2018-04-26T18:58:40.814Z,13.59
2018-04-26T19:00:51.875Z,13.54
2018-04-26T19:03:02.966Z,13.48
2018-04-26T19:05:14.070Z,13.36
2018-04-26T19:07:25.259Z,13.23
2018-04-26T19:09:36.383Z,13.09
2018-04-26T19:11:47.468Z,12.99
2018-04-26T19:13:58.649Z,12.87
2018-04-26T19:16:09.719Z,12.72
2018-04-26T19:18:20.860Z,12.61
2018-04-26T19:20:31.909Z,12.56
2018-04-26T19:22:42.999Z,12.53
2018-04-26T19:24:54.125Z,12.52
2018-04-26T19:27:05.266Z,12.58
2018-04-26T19:29:16.358Z,12.64
2018-04-26T19:31:27.453Z,12.67
2018-04-26T19:33:38.709Z,12.71
2018-04-26T19:35:49.885Z,12.69
2018-04-26T19:38:01.022Z,12.56
2018-04-26T19:40:12.301Z,12.36
2018-04-26T19:42:23.391Z,12.12
2018-04-26T19:44:34.493Z,11.91
2018-04-26T19:46:45.561Z,11.75
2018-04-26T19:48:56.755Z,11.65
2018-04-26T19:51:07.890Z,11.62
2018-04-26T19:53:19.164Z,11.67
2018-04-26T19:55:30.296Z,11.66
2018-04-26T19:57:41.432Z,11.68
2018-04-26T19:59:52.455Z,11.67
2018-04-26T20:02:03.578Z,11.64
2018-04-26T20:04:14.666Z,11.67
2018-04-26T20:06:25.779Z,11.67
2018-04-26T20:08:36.929Z,11.64
2018-04-26T20:10:48.058Z,11.63
2018-04-26T20:12:59.307Z,11.58
2018-04-26T20:15:10.435Z,11.59
2018-04-26T20:17:21.665Z,11.58
2018-04-26T20:19:33.045Z,11.53
2018-04-26T20:21:44.165Z,11.50
2018-04-26T20:23:55.246Z,11.46
2018-04-26T20:26:06.455Z,11.45
2018-04-26T20:28:17.628Z,11.46
2018-04-26T20:30:28.839Z,11.48
2018-04-26T20:32:40.079Z,11.38
2018-04-26T20:34:51.188Z,11.33
2018-04-26T20:37:02.282Z,11.26
2018-04-26T20:39:13.496Z,11.10
2018-04-26T20:41:24.761Z,11.00
2018-04-26T20:43:35.809Z,10.87
2018-04-26T20:45:46.951Z,10.83
2018-04-26T20:47:58.050Z,10.70
2018-04-26T20:50:09.153Z,10.65
2018-04-26T20:52:20.234Z,10.60
2018-04-26T20:54:31.311Z,10.65
2018-04-26T20:56:42.410Z,10.74
2018-04-26T20:58:53.534Z,10.77
2018-04-26T21:01:04.752Z,10.70
2018-04-26T21:03:15.923Z,10.71
2018-04-26T21:05:27.046Z,10.67
2018-04-26T21:07:38.112Z,10.69
2018-04-26T21:09:49.225Z,10.65
2018-04-26T21:12:00.331Z,10.62
2018-04-26T21:14:11.486Z,10.54
2018-04-26T21:16:22.545Z,10.42
2018-04-26T21:18:33.646Z,10.37
2018-04-26T21:20:44.781Z,10.30
2018-04-26T21:22:55.838Z,10.29
2018-04-26T21:25:06.947Z,10.31
2018-04-26T21:27:18.074Z,10.30
2018-04-26T21:29:29.182Z,10.29
2018-04-26T21:31:40.242Z,10.30
2018-04-26T21:33:51.309Z,10.27
2018-04-26T21:36:02.390Z,10.29
2018-04-26T21:38:13.574Z,10.29
2018-04-26T21:40:24.704Z,10.30
2018-04-26T21:42:35.763Z,10.24
2018-04-26T21:44:46.889Z,10.07
2018-04-26T21:46:57.990Z,10.01
2018-04-26T21:49:09.106Z,9.96
2018-04-26T21:51:26.082Z,9.88
2018-04-26T21:53:43.090Z,9.89
2018-04-26T21:56:00.143Z,9.85
2018-04-26T21:58:17.418Z,9.84
2018-04-26T22:00:34.477Z,9.84
2018-04-26T22:02:45.409Z,9.78
2018-04-26T22:07:47.265Z,9.74
2018-04-26T22:09:58.381Z,9.67
2018-04-26T22:12:09.446Z,9.51
2018-04-26T22:14:20.486Z,9.46
2018-04-26T22:16:31.572Z,9.44
2018-04-26T22:18:42.795Z,9.44
2018-04-26T22:20:53.890Z,9.44
2018-04-26T22:23:05.038Z,9.43
2018-04-26T22:25:16.073Z,9.53
2018-04-26T22:27:27.116Z,9.61
2018-04-26T22:29:38.167Z,9.66
2018-04-26T22:31:49.294Z,9.59
2018-04-26T22:34:00.385Z,9.57
2018-04-26T22:36:11.493Z,9.54
2018-04-26T22:38:22.706Z,9.56
2018-04-26T22:40:33.899Z,9.56
2018-04-26T22:42:45.169Z,9.57
2018-04-26T22:44:56.206Z,9.57
2018-04-26T22:47:07.319Z,9.53
2018-04-26T22:49:18.401Z,9.45
2018-04-26T22:51:29.510Z,9.35
2018-04-26T22:53:40.592Z,9.31
2018-04-26T22:55:51.670Z,9.29
2018-04-26T22:58:02.791Z,9.14
2018-04-26T23:00:13.861Z,9.04
2018-04-26T23:02:24.953Z,9.01
2018-04-26T23:04:36.019Z,9.04
2018-04-26T23:06:47.112Z,8.96
2018-04-26T23:08:58.183Z,8.94
2018-04-26T23:11:09.417Z,8.83
2018-04-26T23:13:20.498Z,8.79
2018-04-26T23:15:31.601Z,8.76
2018-04-26T23:17:42.663Z,8.71
2018-04-26T23:19:53.785Z,8.67
2018-04-26T23:22:04.855Z,8.66
2018-04-26T23:24:15.897Z,8.63
2018-04-26T23:26:26.986Z,8.56
2018-04-26T23:28:38.075Z,8.48
2018-04-26T23:30:49.197Z,8.48
2018-04-26T23:33:00.256Z,8.35
2018-04-26T23:35:11.400Z,8.32
2018-04-26T23:37:22.453Z,8.39
2018-04-26T23:39:33.555Z,8.45
2018-04-26T23:41:44.602Z,8.39
2018-04-26T23:43:55.682Z,8.45
2018-04-26T23:46:06.894Z,8.45
2018-04-26T23:48:17.977Z,8.45
2018-04-26T23:50:29.065Z,8.46
2018-04-26T23:52:40.122Z,8.45
2018-04-26T23:54:51.201Z,8.42
2018-04-26T23:57:02.249Z,8.34
2018-04-26T23:59:13.426Z,8.26
